Time;durP1;ratioP1;P1;durP2;ratioP2;P2;SDS_P1;SDS_P2;PMS_P1;PMS_P2;Temp;Humidity;BMP_temperature;BMP_pressure;BME280_temperature;BME280_humidity;BME280_pressure;Samples;Min_cycle;Max_cycle;Signal;HPM_P1;HPM_P2
2023/09/02 00:02:54;;;;;;;;;;;;;;;;;;6332928;28;19927;-73
2023/09/02 00:05:54;;;;;;;;;;;;;;;;;;6337240;27;19927;-73
2023/09/02 00:08:54;;;;;;;;;;;;;;;;;;6326904;28;20012;-74
2023/09/02 00:11:54;;;;;;;;;;;;;;;;;;6324505;27;19957;-74
2023/09/02 00:14:54;;;;;;;;;;;;;;;;;;6335117;28;20532;-76
2023/09/02 00:17:54;;;;;;;;;;;;;;;;;;6329279;27;19918;-79
2023/09/02 00:20:54;;;;;;;;;;;;;;;;;;6327197;27;19916;-83
2023/09/02 00:23:55;;;;;;;;;;;;;;;;;;6327118;28;19981;-80
2023/09/02 00:26:56;;;;;;;;;;;;;;;;;;6325564;27;19973;-80
2023/09/02 00:29:56;;;;;;;;;;;;;;;;;;6345952;27;21175;-81
2023/09/02 00:32:56;;;;;;;;;;;;;;;;;;6334888;28;20442;-80
2023/09/02 00:35:56;;;;;;;;;;;;;;;;;;6324451;28;19911;-79
2023/09/02 00:38:56;;;;;;;;;;;;;;;;;;6349103;27;20361;-80
2023/09/02 00:41:56;;;;;;;;;;;;;;;;;;6347707;27;20568;-80
2023/09/02 00:44:56;;;;;;;;;;;;;;;;;;6332241;28;20035;-80
2023/09/02 00:47:59;;;;;;;;;;;;;;;;;;6325935;28;20140;-79
2023/09/02 00:50:59;;;;;;;;;;;;;;;;;;6321793;28;19920;-79
2023/09/02 00:54:00;;;;;;;;;;;;;;;;;;6338388;27;19958;-79
2023/09/02 00:57:00;;;;;;;;;;;;;;;;;;6353739;27;19911;-79
2023/09/02 01:00:00;;;;;;;;;;;;;;;;;;6336744;27;20429;-79
2023/09/02 01:03:00;;;;;;;;;;;;;;;;;;6340881;27;19922;-79
2023/09/02 01:06:00;;;;;;;;;;;;;;;;;;6346841;27;19920;-79
2023/09/02 01:09:00;;;;;;;;;;;;;;;;;;6346143;28;19919;-79
2023/09/02 01:12:00;;;;;;;;;;;;;;;;;;6342504;28;19912;-79
2023/09/02 01:15:00;;;;;;;;;;;;;;;;;;6336222;28;19915;-79
2023/09/02 01:18:01;;;;;;;;;;;;;;;;;;6336391;28;19911;-79
2023/09/02 01:21:01;;;;;;;;;;;;;;;;;;6337674;27;19927;-79
2023/09/02 01:24:01;;;;;;;;;;;;;;;;;;6350368;28;19989;-79
2023/09/02 01:27:02;;;;;;;;;;;;;;;;;;6371301;27;19911;-79
2023/09/02 01:30:02;;;;;;;;;;;;;;;;;;6358143;27;19928;-80
2023/09/02 01:33:03;;;;;;;;;;;;;;;;;;6331241;27;19919;-79
2023/09/02 01:36:03;;;;;;;;;;;;;;;;;;6352865;27;19919;-79
2023/09/02 01:39:05;;;;;;;;;;;;;;;;;;6349077;28;20362;-79
2023/09/02 01:42:06;;;;;;;;;;;;;;;;;;6342683;28;19920;-78
2023/09/02 01:45:06;;;;;;;;;;;;;;;;;;6356653;27;19969;-80
2023/09/02 01:48:07;;;;;;;;;;;;;;;;;;6340701;27;20002;-80
2023/09/02 01:51:07;;;;;;;;;;;;;;;;;;6360401;27;19923;-79
2023/09/02 01:54:07;;;;;;;;;;;;;;;;;;6358421;27;19918;-79
2023/09/02 01:57:08;;;;;;;;;;;;;;;;;;6349965;28;19912;-80
2023/09/02 02:00:08;;;;;;;;;;;;;;;;;;6329249;27;19920;-80
2023/09/02 02:03:08;;;;;;;;;;;;;;;;;;6328270;28;19923;-80
2023/09/02 02:06:09;;;;;;;;;;;;;;;;;;6346482;27;20071;-79
2023/09/02 02:09:09;;;;;;;;;;;;;;;;;;6336502;27;19935;-80
2023/09/02 02:12:09;;;;;;;;;;;;;;;;;;6332095;28;19954;-82
2023/09/02 02:15:11;;;;;;;;;;;;;;;;;;6313908;28;19912;-81
2023/09/02 02:18:11;;;;;;;;;;;;;;;;;;6339401;27;19947;-78
2023/09/02 02:21:11;;;;;;;;;;;;;;;;;;6328734;28;19916;-78
2023/09/02 02:24:13;;;;;;;;;;;;;;;;;;6327772;28;20369;-78
2023/09/02 02:27:13;;;;;;;;;;;;;;;;;;6335402;28;19912;-77
2023/09/02 02:30:13;;;;;;;;;;;;;;;;;;6325868;27;19916;-78
2023/09/02 02:33:13;;;;;;;;;;;;;;;;;;6338303;28;19922;-78
2023/09/02 02:36:14;;;;;;;;;;;;;;;;;;6349200;28;19923;-78
2023/09/02 02:39:14;;;;;;;;;;;;;;;;;;6348200;27;19912;-79
2023/09/02 02:42:15;;;;;;;;;;;;;;;;;;6346677;27;19917;-78
2023/09/02 02:45:15;;;;;;;;;;;;;;;;;;6346722;28;19912;-77
2023/09/02 02:48:15;;;;;;;;;;;;;;;;;;6363604;27;20254;-80
2023/09/02 02:51:15;;;;;;;;;;;;;;;;;;6355739;27;20370;-80
2023/09/02 02:54:16;;;;;;;;;;;;;;;;;;6365608;27;19911;-80
2023/09/02 02:57:16;;;;;;;;;;;;;;;;;;6340752;27;19923;-80
2023/09/02 03:00:17;;;;;;;;;;;;;;;;;;6356314;27;20308;-80
2023/09/02 03:03:19;;;;;;;;;;;;;;;;;;6332629;28;19927;-80
2023/09/02 03:06:20;;;;;;;;;;;;;;;;;;6330201;27;20333;-82
2023/09/02 03:09:20;;;;;;;;;;;;;;;;;;6325815;28;20005;-80
2023/09/02 03:12:20;;;;;;;;;;;;;;;;;;6326755;28;19927;-80
2023/09/02 03:15:20;;;;;;;;;;;;;;;;;;6342761;27;19912;-80
2023/09/02 03:18:20;;;;;;;;;;;;;;;;;;6331449;27;19912;-80
2023/09/02 03:21:20;;;;;;;;;;;;;;;;;;6347281;27;19912;-80
2023/09/02 03:24:20;;;;;;;;;;;;;;;;;;6346234;27;20025;-80
2023/09/02 03:27:21;;;;;;;;;;;;;;;;;;6331278;27;19920;-80
2023/09/02 03:30:21;;;;;;;;;;;;;;;;;;6329412;28;19927;-80
2023/09/02 03:33:21;;;;;;;;;;;;;;;;;;6332123;28;19950;-80
2023/09/02 03:36:21;;;;;;;;;;;;;;;;;;6341438;28;19912;-79
2023/09/02 03:39:22;;;;;;;;;;;;;;;;;;6356538;28;19922;-82
2023/09/02 03:42:22;;;;;;;;;;;;;;;;;;6357166;27;19999;-82
2023/09/02 03:45:22;;;;;;;;;;;;;;;;;;6344674;28;20004;-82
2023/09/02 03:48:22;;;;;;;;;;;;;;;;;;6354653;27;19985;-79
2023/09/02 03:51:22;;;;;;;;;;;;;;;;;;6341146;28;20373;-79
2023/09/02 03:54:22;;;;;;;;;;;;;;;;;;6328555;28;19958;-80
2023/09/02 03:57:22;;;;;;;;;;;;;;;;;;6323951;28;19917;-79
2023/09/02 04:00:26;;;;;;;;;;;;;;;;;;6338080;27;19931;-80
2023/09/02 04:03:26;;;;;;;;;;;;;;;;;;6343579;28;19974;-80
2023/09/02 04:06:26;;;;;;;;;;;;;;;;;;6330572;27;19965;-79
2023/09/02 04:09:27;;;;;;;;;;;;;;;;;;6322692;28;19928;-79
2023/09/02 04:12:27;;;;;;;;;;;;;;;;;;6326934;27;20314;-79
2023/09/02 04:15:27;;;;;;;;;;;;;;;;;;6326894;28;19919;-79
2023/09/02 04:18:30;;;;;;;;;;;;;;;;;;6323881;27;19916;-78
2023/09/02 04:21:30;;;;;;;;;;;;;;;;;;6308619;28;19912;-79
2023/09/02 04:24:30;;;;;;;;;;;;;;;;;;6329682;27;19934;-78
2023/09/02 04:27:30;;;;;;;;;;;;;;;;;;6342276;27;19915;-79
2023/09/02 04:30:31;;;;;;;;;;;;;;;;;;6344729;27;19926;-80
2023/09/02 04:33:31;;;;;;;;;;;;;;;;;;6337853;28;19943;-80
2023/09/02 04:36:31;;;;;;;;;;;;;;;;;;6326379;28;20383;-80
2023/09/02 04:39:31;;;;;;;;;;;;;;;;;;6341034;27;19916;-80
2023/09/02 04:42:31;;;;;;;;;;;;;;;;;;6328925;28;19959;-80
2023/09/02 04:45:32;;;;;;;;;;;;;;;;;;6329450;28;19912;-80
2023/09/02 04:48:32;;;;;;;;;;;;;;;;;;6341636;27;19911;-80
2023/09/02 04:51:32;;;;;;;;;;;;;;;;;;6344200;27;19930;-80
2023/09/02 04:54:32;;;;;;;;;;;;;;;;;;6326532;28;19912;-80
2023/09/02 04:57:32;;;;;;;;;;;;;;;;;;6344819;28;19911;-80
2023/09/02 05:00:33;;;;;;;;;;;;;;;;;;6341826;27;19970;-81
2023/09/02 05:03:33;;;;;;;;;;;;;;;;;;6362272;27;19977;-81
2023/09/02 05:06:33;;;;;;;;;;;;;;;;;;6345143;28;20132;-81
2023/09/02 05:09:33;;;;;;;;;;;;;;;;;;6336574;28;20326;-81
2023/09/02 05:12:33;;;;;;;;;;;;;;;;;;6321203;28;19931;-81
2023/09/02 05:15:34;;;;;;;;;;;;;;;;;;6327683;28;19962;-80
2023/09/02 05:18:34;;;;;;;;;;;;;;;;;;6325339;28;20073;-77
2023/09/02 05:21:34;;;;;;;;;;;;;;;;;;6326799;28;19959;-76
2023/09/02 05:24:34;;;;;;;;;;;;;;;;;;6325377;28;20259;-77
2023/09/02 05:27:36;;;;;;;;;;;;;;;;;;6330066;28;20433;-77
2023/09/02 05:30:36;;;;;;;;;;;;;;;;;;6311273;28;19920;-82
2023/09/02 05:33:36;;;;;;;;;;;;;;;;;;6330955;28;19908;-78
2023/09/02 05:36:37;;;;;;;;;;;;;;;;;;6335122;28;20014;-78
2023/09/02 05:39:37;;;;;;;;;;;;;;;;;;6323334;28;19915;-77
2023/09/02 05:42:37;;;;;;;;;;;;;;;;;;6326032;28;19995;-78
2023/09/02 05:45:37;;;;;;;;;;;;;;;;;;6334991;27;20437;-78
2023/09/02 05:48:37;;;;;;;;;;;;;;;;;;6329414;28;19912;-79
2023/09/02 05:51:37;;;;;;;;;;;;;;;;;;6337895;28;20010;-78
2023/09/02 05:54:37;;;;;;;;;;;;;;;;;;6326321;28;19916;-78
2023/09/02 05:57:37;;;;;;;;;;;;;;;;;;6329631;28;19988;-78
2023/09/02 06:00:38;;;;;;;;;;;;;;;;;;6322008;28;19920;-78
2023/09/02 06:03:38;;;;;;;;;;;;;;;;;;6324398;28;19924;-77
2023/09/02 06:06:38;;;;;;;;;;;;;;;;;;6327832;28;20370;-77
2023/09/02 06:09:38;;;;;;;;;;;;;;;;;;6341725;27;19950;-77
2023/09/02 06:12:38;;;;;;;;;;;;;;;;;;6341769;27;19919;-77
2023/09/02 06:15:38;;;;;;;;;;;;;;;;;;6325676;27;20374;-77
2023/09/02 06:18:39;;;;;;;;;;;;;;;;;;5973811;27;10000147;-79
2023/09/02 06:21:39;;;;;;;;;;;;;;;;;;6326965;28;19920;-78
2023/09/02 06:24:39;;;;;;;;;;;;;;;;;;6328782;27;19924;-78
2023/09/02 06:27:39;;;;;;;;;;;;;;;;;;6325962;27;19973;-79
2023/09/02 06:30:39;;;;;;;;;;;;;;;;;;6339982;27;20015;-79
2023/09/02 06:33:39;;;;;;;;;;;;;;;;;;6340615;27;20403;-77
2023/09/02 06:36:40;;;;;;;;;;;;;;;;;;6327848;27;19916;-78
2023/09/02 06:39:40;;;;;;;;;;;;;;;;;;6325548;27;19915;-77
2023/09/02 06:42:41;;;;;;;;;;;;;;;;;;6330906;28;20029;-78
2023/09/02 06:45:41;;;;;;;;;;;;;;;;;;6324471;28;20392;-78
2023/09/02 06:48:41;;;;;;;;;;;;;;;;;;6334189;27;19916;-76
2023/09/02 06:51:41;;;;;;;;;;;;;;;;;;6296799;28;19924;-75
2023/09/02 06:54:41;;;;;;;;;;;;;;;;;;6276314;28;20481;-75
2023/09/02 06:57:45;;;;;;;;;;;;;;;;;;6296136;28;19982;-75
2023/09/02 07:00:45;;;;;;;;;;;;;;;;;;6280113;28;19921;-76
2023/09/02 07:03:45;;;;;;;;;;;;;;;;;;6298785;28;19990;-77
2023/09/02 07:06:45;;;;;;;;;;;;;;;;;;6277988;28;19922;-76
2023/09/02 07:09:47;;;;;;;;;;;;;;;;;;6288833;28;19917;-75
2023/09/02 07:12:50;;;;;;;;;;;;;;;;;;6295158;28;19967;-75
2023/09/02 07:15:51;;;;;;;;;;;;;;;;;;6272075;28;19923;-76
2023/09/02 07:18:51;;;;;;;;;;;;;;;;;;6280650;28;19916;-78
2023/09/02 07:21:52;;;;;;;;;;;;;;;;;;6279459;28;19960;-76
2023/09/02 07:24:52;;;;;;;;;;;;;;;;;;6273170;28;19952;-76
2023/09/02 07:27:52;;;;;;;;;;;;;;;;;;6255404;28;19922;-76
2023/09/02 07:30:52;;;;;;;;;;;;;;;;;;6273275;28;19924;-77
2023/09/02 07:33:52;;;;;;;;;;;;;;;;;;6272135;28;19917;-77
2023/09/02 07:36:52;;;;;;;;;;;;;;;;;;6272220;28;20004;-76
2023/09/02 07:39:53;;;;;;;;;;;;;;;;;;6278406;28;19991;-78
2023/09/02 07:42:53;;;;;;;;;;;;;;;;;;6276081;28;19927;-77
2023/09/02 07:45:54;;;;;;;;;;;;;;;;;;6276789;28;19952;-77
2023/09/02 07:48:54;;;;;;;;;;;;;;;;;;6272820;28;19959;-78
2023/09/02 07:51:54;;;;;;;;;;;;;;;;;;6291403;28;19963;-82
2023/09/02 07:54:54;;;;;;;;;;;;;;;;;;6313207;28;19959;-79
2023/09/02 07:57:54;;;;;;;;;;;;;;;;;;6328140;28;19922;-79
2023/09/02 08:00:55;;;;;;;;;;;;;;;;;;6336473;28;19916;-79
2023/09/02 08:03:55;;;;;;;;;;;;;;;;;;6316003;28;19916;-80
2023/09/02 08:06:55;;;;;;;;;;;;;;;;;;6308977;28;19924;-79
2023/09/02 08:09:56;;;;;;;;;;;;;;;;;;6314458;28;20440;-79
2023/09/02 08:12:56;;;;;;;;;;;;;;;;;;6308385;28;19960;-80
2023/09/02 08:15:56;;;;;;;;;;;;;;;;;;6299880;28;20005;-81
2023/09/02 08:18:56;;;;;;;;;;;;;;;;;;6301403;28;19923;-81
2023/09/02 08:21:56;;;;;;;;;;;;;;;;;;6305174;28;19912;-80
2023/09/02 08:24:56;;;;;;;;;;;;;;;;;;6324775;28;19913;-80
2023/09/02 08:27:56;;;;;;;;;;;;;;;;;;6304195;28;20357;-80
2023/09/02 08:30:57;;;;;;;;;;;;;;;;;;6296927;28;19916;-79
2023/09/02 08:33:58;;;;;;;;;;;;;;;;;;6315002;28;20010;-79
2023/09/02 08:36:58;;;;;;;;;;;;;;;;;;6322818;28;19920;-80
2023/09/02 08:39:59;;;;;;;;;;;;;;;;;;6301906;28;19912;-80
2023/09/02 08:42:59;;;;;;;;;;;;;;;;;;6333934;28;19955;-81
2023/09/02 08:45:59;;;;;;;;;;;;;;;;;;6314559;28;20335;-81
2023/09/02 08:49:00;;;;;;;;;;;;;;;;;;6301432;28;19908;-80
2023/09/02 08:52:00;;;;;;;;;;;;;;;;;;6324250;28;19996;-80
2023/09/02 08:55:00;;;;;;;;;;;;;;;;;;6299246;28;20011;-81
2023/09/02 08:58:01;;;;;;;;;;;;;;;;;;6344750;28;19912;-80
2023/09/02 09:01:01;;;;;;;;;;;;;;;;;;6338933;28;20363;-81
2023/09/02 09:04:01;;;;;;;;;;;;;;;;;;6310383;28;19920;-83
2023/09/02 09:07:01;;;;;;;;;;;;;;;;;;6306364;28;19912;-81
2023/09/02 09:10:01;;;;;;;;;;;;;;;;;;6312686;28;20374;-81
2023/09/02 09:13:01;;;;;;;;;;;;;;;;;;6327309;28;20354;-81
2023/09/02 09:16:01;;;;;;;;;;;;;;;;;;6303023;28;20007;-81
2023/09/02 09:19:02;;;;;;;;;;;;;;;;;;6298256;28;19920;-81
2023/09/02 09:22:02;;;;;;;;;;;;;;;;;;5962746;27;9999877;-81
2023/09/02 09:25:02;;;;;;;;;;;;;;;;;;6328002;28;19935;-81
2023/09/02 09:28:03;;;;;;;;;;;;;;;;;;6301926;28;19916;-81
2023/09/02 09:31:03;;;;;;;;;;;;;;;;;;6325713;28;19966;-81
2023/09/02 09:34:03;;;;;;;;;;;;;;;;;;6335938;28;19912;-81
2023/09/02 09:37:03;;;;;;;;;;;;;;;;;;6320681;28;19912;-81
2023/09/02 09:40:03;;;;;;;;;;;;;;;;;;6320529;28;19908;-81
2023/09/02 09:43:04;;;;;;;;;;;;;;;;;;6333299;28;20385;-81
2023/09/02 09:46:04;;;;;;;;;;;;;;;;;;6322825;28;20392;-81
2023/09/02 09:49:04;;;;;;;;;;;;;;;;;;6309159;28;19916;-83
2023/09/02 09:52:04;;;;;;;;;;;;;;;;;;6300179;28;19949;-83
2023/09/02 09:55:05;;;;;;;;;;;;;;;;;;6329877;28;19916;-82
2023/09/02 09:58:05;;;;;;;;;;;;;;;;;;6314965;28;20363;-70
2023/09/02 10:01:08;;;;;;;;;;;;;;;;;;6312057;28;19928;-71
2023/09/02 10:04:08;;;;;;;;;;;;;;;;;;6315995;28;19924;-70
2023/09/02 10:07:08;;;;;;;;;;;;;;;;;;6310154;28;19969;-71
2023/09/02 10:10:08;;;;;;;;;;;;;;;;;;6308806;28;19916;-71
2023/09/02 10:13:08;;;;;;;;;;;;;;;;;;6296849;28;19916;-71
2023/09/02 10:16:08;;;;;;;;;;;;;;;;;;6307791;28;20394;-72
2023/09/02 10:19:09;;;;;;;;;;;;;;;;;;6317930;28;19938;-71
2023/09/02 10:22:09;;;;;;;;;;;;;;;;;;6300558;28;19931;-70
2023/09/02 10:25:10;;;;;;;;;;;;;;;;;;6304550;28;19985;-71
2023/09/02 10:28:10;;;;;;;;;;;;;;;;;;6319169;28;20020;-70
2023/09/02 10:31:12;;;;;;;;;;;;;;;;;;6305730;28;19916;-71
2023/09/02 10:34:13;;;;;;;;;;;;;;;;;;6311683;28;19917;-70
2023/09/02 10:37:16;;;;;;;;;;;;;;;;;;6313307;28;19954;-70
2023/09/02 10:40:16;;;;;;;;;;;;;;;;;;6300947;28;20023;-71
2023/09/02 10:43:16;;;;;;;;;;;;;;;;;;6301602;28;19920;-70
2023/09/02 10:46:17;;;;;;;;;;;;;;;;;;6309580;28;19955;-70
2023/09/02 10:49:17;;;;;;;;;;;;;;;;;;6324495;28;20221;-70
2023/09/02 10:52:17;;;;;;;;;;;;;;;;;;6326725;28;20691;-70
2023/09/02 10:55:17;;;;;;;;;;;;;;;;;;6292616;28;19964;-70
2023/09/02 10:58:17;;;;;;;;;;;;;;;;;;6318654;28;19956;-70
2023/09/02 11:01:17;;;;;;;;;;;;;;;;;;6312132;28;19912;-69
2023/09/02 11:04:17;;;;;;;;;;;;;;;;;;6316707;28;19920;-70
2023/09/02 11:07:17;;;;;;;;;;;;;;;;;;6322917;28;20385;-70
2023/09/02 11:10:17;;;;;;;;;;;;;;;;;;6331730;28;19976;-83
2023/09/02 11:13:18;;;;;;;;;;;;;;;;;;6330897;28;19909;-84
2023/09/02 11:16:18;;;;;;;;;;;;;;;;;;6331624;27;19967;-83
2023/09/02 11:19:18;;;;;;;;;;;;;;;;;;6341330;28;19917;-83
2023/09/02 11:22:19;;;;;;;;;;;;;;;;;;6351597;28;19923;-84
2023/09/02 11:25:19;;;;;;;;;;;;;;;;;;6345925;28;19984;-84
2023/09/02 11:28:19;;;;;;;;;;;;;;;;;;6343968;28;19904;-83
2023/09/02 11:31:19;;;;;;;;;;;;;;;;;;6341854;28;19912;-84
2023/09/02 11:34:19;;;;;;;;;;;;;;;;;;6334918;28;19905;-85
2023/09/02 11:37:19;;;;;;;;;;;;;;;;;;6345635;28;19947;-84
2023/09/02 11:40:19;;;;;;;;;;;;;;;;;;6330805;28;19970;-84
2023/09/02 11:43:20;;;;;;;;;;;;;;;;;;6346277;28;19974;-77
2023/09/02 11:46:20;;;;;;;;;;;;;;;;;;6354442;28;19962;-85
2023/09/02 11:49:20;;;;;;;;;;;;;;;;;;6336372;28;19919;-84
2023/09/02 11:52:20;;;;;;;;;;;;;;;;;;6340727;28;19927;-84
2023/09/02 11:55:21;;;;;;;;;;;;;;;;;;6354900;28;19924;-85
2023/09/02 11:58:21;;;;;;;;;;;;;;;;;;6337339;28;19920;-84
2023/09/02 12:01:21;;;;;;;;;;;;;;;;;;6328518;28;19981;-85
2023/09/02 12:04:21;;;;;;;;;;;;;;;;;;6339417;28;19959;-84
2023/09/02 12:07:22;;;;;;;;;;;;;;;;;;6344425;28;19934;-84
2023/09/02 12:10:26;;;;;;;;;;;;;;;;;;6325192;28;19920;-83
2023/09/02 12:13:26;;;;;;;;;;;;;;;;;;6334189;28;19913;-84
2023/09/02 12:16:26;;;;;;;;;;;;;;;;;;6333784;28;19904;-84
2023/09/02 12:19:26;;;;;;;;;;;;;;;;;;6333523;28;19912;-84
2023/09/02 12:22:26;;;;;;;;;;;;;;;;;;6334001;28;19963;-85
2023/09/02 12:25:27;;;;;;;;;;;;;;;;;;6361791;28;19923;-85
2023/09/02 12:28:29;;;;;;;;;;;;;;;;;;6328647;28;19931;-84
2023/09/02 12:31:29;;;;;;;;;;;;;;;;;;6318680;28;19943;-85
2023/09/02 12:34:33;;;;;;;;;;;;;;;;;;6325420;28;20414;-86
2023/09/02 12:37:33;;;;;;;;;;;;;;;;;;6343675;28;20393;-86
2023/09/02 12:40:34;;;;;;;;;;;;;;;;;;6298804;28;19910;-86
2023/09/02 12:43:34;;;;;;;;;;;;;;;;;;6307767;28;19971;-87
2023/09/02 12:46:34;;;;;;;;;;;;;;;;;;6341290;28;19916;-87
2023/09/02 12:49:34;;;;;;;;;;;;;;;;;;6347611;28;19938;-84
2023/09/02 12:52:34;;;;;;;;;;;;;;;;;;6324730;28;20283;-82
2023/09/02 12:55:34;;;;;;;;;;;;;;;;;;6324226;28;19909;-83
2023/09/02 12:58:34;;;;;;;;;;;;;;;;;;6303675;28;19943;-83
2023/09/02 13:01:34;;;;;;;;;;;;;;;;;;6299413;28;19909;-84
2023/09/02 13:04:35;;;;;;;;;;;;;;;;;;6305262;28;19963;-87
2023/09/02 13:07:35;;;;;;;;;;;;;;;;;;6313542;28;19943;-85
2023/09/02 13:10:35;;;;;;;;;;;;;;;;;;6299299;28;19920;-85
2023/09/02 13:13:35;;;;;;;;;;;;;;;;;;6302305;28;19909;-84
2023/09/02 13:16:35;;;;;;;;;;;;;;;;;;6327834;28;19924;-87
2023/09/02 13:19:36;;;;;;;;;;;;;;;;;;6300458;28;20389;-88
2023/09/02 13:22:37;;;;;;;;;;;;;;;;;;6298546;28;19913;-87
2023/09/02 13:25:37;;;;;;;;;;;;;;;;;;6317225;28;19923;-86
2023/09/02 13:28:37;;;;;;;;;;;;;;;;;;6341496;28;19912;-86
2023/09/02 13:31:37;;;;;;;;;;;;;;;;;;6341631;28;19912;-87
2023/09/02 13:34:37;;;;;;;;;;;;;;;;;;6311713;28;19908;-85
2023/09/02 13:37:38;;;;;;;;;;;;;;;;;;6315321;28;20290;-86
2023/09/02 13:40:39;;;;;;;;;;;;;;;;;;6298617;28;20235;-85
2023/09/02 13:43:39;;;;;;;;;;;;;;;;;;6308387;28;20007;-84
2023/09/02 13:46:39;;;;;;;;;;;;;;;;;;6329338;28;20015;-88
2023/09/02 13:49:40;;;;;;;;;;;;;;;;;;6347612;28;19908;-87
2023/09/02 13:52:40;;;;;;;;;;;;;;;;;;6349588;28;19916;-84
2023/09/02 13:55:41;;;;;;;;;;;;;;;;;;6335457;28;19935;-83
2023/09/02 13:58:42;;;;;;;;;;;;;;;;;;6301901;28;19919;-84
2023/09/02 14:01:42;;;;;;;;;;;;;;;;;;6295337;28;19916;-84
2023/09/02 14:04:42;;;;;;;;;;;;;;;;;;6328526;28;19931;-84
2023/09/02 14:07:42;;;;;;;;;;;;;;;;;;6337333;28;20045;-83
2023/09/02 14:10:43;;;;;;;;;;;;;;;;;;6328681;28;19920;-84
2023/09/02 14:13:43;;;;;;;;;;;;;;;;;;6321790;28;19923;-83
2023/09/02 14:16:43;;;;;;;;;;;;;;;;;;6319277;28;19917;-83
2023/09/02 14:19:43;;;;;;;;;;;;;;;;;;6325916;28;19912;-83
2023/09/02 14:22:44;;;;;;;;;;;;;;;;;;6327771;28;19994;-84
2023/09/02 14:25:44;;;;;;;;;;;;;;;;;;6322394;28;19912;-83
2023/09/02 14:28:44;;;;;;;;;;;;;;;;;;6339383;28;20346;-85
2023/09/02 14:31:45;;;;;;;;;;;;;;;;;;6352010;28;19919;-84
2023/09/02 14:34:46;;;;;;;;;;;;;;;;;;6303480;28;19995;-83
2023/09/02 14:37:46;;;;;;;;;;;;;;;;;;6326495;28;20253;-83
2023/09/02 14:40:46;;;;;;;;;;;;;;;;;;6331988;28;19943;-84
2023/09/02 14:43:50;;;;;;;;;;;;;;;;;;6348988;28;20020;-83
2023/09/02 14:46:50;;;;;;;;;;;;;;;;;;6338184;28;20049;-84
2023/09/02 14:49:50;;;;;;;;;;;;;;;;;;6351990;28;19912;-82
2023/09/02 14:52:52;;;;;;;;;;;;;;;;;;6352004;28;20434;-84
2023/09/02 14:55:53;;;;;;;;;;;;;;;;;;6324730;28;19919;-83
2023/09/02 14:58:53;;;;;;;;;;;;;;;;;;6319931;28;19916;-85
2023/09/02 15:01:54;;;;;;;;;;;;;;;;;;6305684;28;20050;-85
2023/09/02 15:04:55;;;;;;;;;;;;;;;;;;6314771;28;19908;-85
2023/09/02 15:07:58;;;;;;;;;;;;;;;;;;6328691;28;19946;-83
2023/09/02 15:10:58;;;;;;;;;;;;;;;;;;6324548;28;20022;-84
2023/09/02 15:13:58;;;;;;;;;;;;;;;;;;6321791;28;19951;-83
2023/09/02 15:16:58;;;;;;;;;;;;;;;;;;6315012;28;19950;-85
2023/09/02 15:19:58;;;;;;;;;;;;;;;;;;6313403;28;20420;-83
2023/09/02 15:22:59;;;;;;;;;;;;;;;;;;6313396;28;19961;-83
2023/09/02 15:25:59;;;;;;;;;;;;;;;;;;6311703;28;19916;-83
2023/09/02 15:28:59;;;;;;;;;;;;;;;;;;6317425;28;19936;-82
2023/09/02 15:32:01;;;;;;;;;;;;;;;;;;6328198;28;20252;-83
2023/09/02 15:35:01;;;;;;;;;;;;;;;;;;6349883;28;19912;-82
2023/09/02 15:38:02;;;;;;;;;;;;;;;;;;6348217;28;19919;-82
2023/09/02 15:41:06;;;;;;;;;;;;;;;;;;6319912;28;19912;-84
2023/09/02 15:44:06;;;;;;;;;;;;;;;;;;6329731;28;19919;-84
2023/09/02 15:47:06;;;;;;;;;;;;;;;;;;6331013;28;19918;-83
2023/09/02 15:50:06;;;;;;;;;;;;;;;;;;6348799;28;19915;-70
2023/09/02 15:53:07;;;;;;;;;;;;;;;;;;6328720;28;20378;-70
2023/09/02 15:56:07;;;;;;;;;;;;;;;;;;6321401;28;20045;-70
2023/09/02 15:59:07;;;;;;;;;;;;;;;;;;6297489;28;20011;-70
2023/09/02 16:02:09;;;;;;;;;;;;;;;;;;6302204;28;19951;-70
2023/09/02 16:05:09;;;;;;;;;;;;;;;;;;6326137;28;19909;-70
2023/09/02 16:08:09;;;;;;;;;;;;;;;;;;6338221;28;19919;-70
2023/09/02 16:11:09;;;;;;;;;;;;;;;;;;6322060;28;19916;-71
2023/09/02 16:14:09;;;;;;;;;;;;;;;;;;6318497;28;19927;-70
2023/09/02 16:17:09;;;;;;;;;;;;;;;;;;6331465;28;19913;-70
2023/09/02 16:20:13;;;;;;;;;;;;;;;;;;6314483;28;19912;-70
2023/09/02 16:23:13;;;;;;;;;;;;;;;;;;6323329;28;19912;-70
2023/09/02 16:26:13;;;;;;;;;;;;;;;;;;6342191;28;19922;-70
2023/09/02 16:29:14;;;;;;;;;;;;;;;;;;6328030;28;19922;-70
2023/09/02 16:32:23;;;;;;;;;;;;;;;;;;6312547;28;19919;-70
2023/09/02 16:35:24;;;;;;;;;;;;;;;;;;6325425;28;19923;-70
2023/09/02 16:38:24;;;;;;;;;;;;;;;;;;6344164;28;20412;-70
2023/09/02 16:41:26;;;;;;;;;;;;;;;;;;6347723;28;19912;-69
2023/09/02 16:44:26;;;;;;;;;;;;;;;;;;6343878;28;19920;-69
2023/09/02 16:47:26;;;;;;;;;;;;;;;;;;6315217;28;19958;-69
2023/09/02 16:50:26;;;;;;;;;;;;;;;;;;6296270;28;20028;-70
2023/09/02 16:53:26;;;;;;;;;;;;;;;;;;6298562;28;19962;-71
2023/09/02 16:56:26;;;;;;;;;;;;;;;;;;6330258;28;19980;-70
2023/09/02 16:59:26;;;;;;;;;;;;;;;;;;6328328;28;19923;-86
2023/09/02 17:02:27;;;;;;;;;;;;;;;;;;6306889;28;19925;-86
2023/09/02 17:05:30;;;;;;;;;;;;;;;;;;6326518;28;19924;-85
2023/09/02 17:08:30;;;;;;;;;;;;;;;;;;6341346;28;20480;-85
2023/09/02 17:11:31;;;;;;;;;;;;;;;;;;6325513;28;19920;-86
2023/09/02 17:14:31;;;;;;;;;;;;;;;;;;6350150;28;20003;-86
2023/09/02 17:17:31;;;;;;;;;;;;;;;;;;6354594;28;19943;-85
2023/09/02 17:20:33;;;;;;;;;;;;;;;;;;6312664;28;19920;-84
2023/09/02 17:23:33;;;;;;;;;;;;;;;;;;6337335;28;19923;-87
2023/09/02 17:26:34;;;;;;;;;;;;;;;;;;6326679;28;19912;-87
2023/09/02 17:29:34;;;;;;;;;;;;;;;;;;6324604;28;19907;-85
2023/09/02 17:32:34;;;;;;;;;;;;;;;;;;6344560;28;19959;-84
2023/09/02 17:35:34;;;;;;;;;;;;;;;;;;6340436;28;19943;-85
2023/09/02 17:38:34;;;;;;;;;;;;;;;;;;6335227;28;20373;-84
2023/09/02 17:41:34;;;;;;;;;;;;;;;;;;6353517;28;20421;-85
2023/09/02 17:44:35;;;;;;;;;;;;;;;;;;6314711;28;20492;-84
2023/09/02 17:47:35;;;;;;;;;;;;;;;;;;6353337;28;20006;-84
2023/09/02 17:50:36;;;;;;;;;;;;;;;;;;6362437;28;19916;-84
2023/09/02 17:53:36;;;;;;;;;;;;;;;;;;6328454;28;19912;-83
2023/09/02 17:56:36;;;;;;;;;;;;;;;;;;6310699;28;19992;-85
2023/09/02 17:59:36;;;;;;;;;;;;;;;;;;6345126;28;19911;-86
2023/09/02 18:02:36;;;;;;;;;;;;;;;;;;6341550;28;19919;-85
2023/09/02 18:05:38;;;;;;;;;;;;;;;;;;6337678;28;19980;-85
2023/09/02 18:08:38;;;;;;;;;;;;;;;;;;6348268;28;19939;-85
2023/09/02 18:11:38;;;;;;;;;;;;;;;;;;6327847;28;19945;-86
2023/09/02 18:14:43;;;;;;;;;;;;;;;;;;6335437;28;19916;-84
2023/09/02 18:17:47;;;;;;;;;;;;;;;;;;6352817;28;19968;-85
2023/09/02 18:20:47;;;;;;;;;;;;;;;;;;6353836;28;19916;-84
2023/09/02 18:23:48;;;;;;;;;;;;;;;;;;6367234;28;19932;-82
2023/09/02 18:26:49;;;;;;;;;;;;;;;;;;6350818;28;20413;-83
2023/09/02 18:29:49;;;;;;;;;;;;;;;;;;6342008;28;19916;-83
2023/09/02 18:32:49;;;;;;;;;;;;;;;;;;6301765;28;20011;-82
2023/09/02 18:35:49;;;;;;;;;;;;;;;;;;6306736;28;20019;-81
2023/09/02 18:38:49;;;;;;;;;;;;;;;;;;6341184;28;20091;-81
2023/09/02 18:41:49;;;;;;;;;;;;;;;;;;6322121;28;20012;-82
2023/09/02 18:44:50;;;;;;;;;;;;;;;;;;6299294;28;19924;-83
2023/09/02 18:47:52;;;;;;;;;;;;;;;;;;6336627;28;19911;-82
2023/09/02 18:50:53;;;;;;;;;;;;;;;;;;6346307;27;19912;-82
2023/09/02 18:53:53;;;;;;;;;;;;;;;;;;6321241;28;20435;-82
2023/09/02 18:56:54;;;;;;;;;;;;;;;;;;6337425;28;19916;-82
2023/09/02 18:59:55;;;;;;;;;;;;;;;;;;6342915;28;19916;-82
2023/09/02 19:02:55;;;;;;;;;;;;;;;;;;6336974;28;19931;-82
2023/09/02 19:05:55;;;;;;;;;;;;;;;;;;6338844;28;19911;-80
2023/09/02 19:08:56;;;;;;;;;;;;;;;;;;6340388;28;19924;-80
2023/09/02 19:11:56;;;;;;;;;;;;;;;;;;6319131;28;19995;-80
2023/09/02 19:14:56;;;;;;;;;;;;;;;;;;6311041;28;20406;-80
2023/09/02 19:17:56;;;;;;;;;;;;;;;;;;6326745;28;19919;-80
2023/09/02 19:20:56;;;;;;;;;;;;;;;;;;6335851;28;19912;-80
2023/09/02 19:23:56;;;;;;;;;;;;;;;;;;6329958;28;19920;-80
2023/09/02 19:26:57;;;;;;;;;;;;;;;;;;6347254;28;20006;-80
2023/09/02 19:29:57;;;;;;;;;;;;;;;;;;6334638;28;19916;-80
2023/09/02 19:32:57;;;;;;;;;;;;;;;;;;6314967;28;19916;-80
2023/09/02 19:35:58;;;;;;;;;;;;;;;;;;6326822;28;20309;-79
2023/09/02 19:38:58;;;;;;;;;;;;;;;;;;6331402;28;19908;-80
2023/09/02 19:41:58;;;;;;;;;;;;;;;;;;6349473;28;19993;-80
2023/09/02 19:44:58;;;;;;;;;;;;;;;;;;6323770;28;19916;-80
2023/09/02 19:47:58;;;;;;;;;;;;;;;;;;6326319;28;19995;-80
2023/09/02 19:50:58;;;;;;;;;;;;;;;;;;6345356;28;20035;-80
2023/09/02 19:53:58;;;;;;;;;;;;;;;;;;6327946;28;19946;-79
2023/09/02 19:56:58;;;;;;;;;;;;;;;;;;6330018;28;20114;-80
2023/09/02 19:59:59;;;;;;;;;;;;;;;;;;6334824;28;19930;-81
2023/09/02 20:02:59;;;;;;;;;;;;;;;;;;6297879;28;19920;-80
2023/09/02 20:05:59;;;;;;;;;;;;;;;;;;6318935;28;19966;-79
2023/09/02 20:08:59;;;;;;;;;;;;;;;;;;6316949;28;19944;-80
2023/09/02 20:12:00;;;;;;;;;;;;;;;;;;6302994;28;19916;-79
2023/09/02 20:15:00;;;;;;;;;;;;;;;;;;6334556;28;20297;-79
2023/09/02 20:18:01;;;;;;;;;;;;;;;;;;6336655;28;19912;-79
2023/09/02 20:21:01;;;;;;;;;;;;;;;;;;6337727;28;19916;-79
2023/09/02 20:24:03;;;;;;;;;;;;;;;;;;6355289;28;19915;-79
2023/09/02 20:27:03;;;;;;;;;;;;;;;;;;6326623;28;19981;-79
2023/09/02 20:30:03;;;;;;;;;;;;;;;;;;6301040;28;20464;-80
2023/09/02 20:33:04;;;;;;;;;;;;;;;;;;6323831;28;19908;-80